Time;durP1;ratioP1;P1;durP2;ratioP2;P2;SDS_P1;SDS_P2;PMS_P1;PMS_P2;Temp;Humidity;BMP_temperature;BMP_pressure;BME280_temperature;BME280_humidity;BME280_pressure;Samples;Min_cycle;Max_cycle;Signal;HPM_P1;HPM_P2
2023/06/16 00:02:24;;;;;;;6.83;4.07;;;18.20;99.90;;;;;;5074516;28;20048;-72
2023/06/16 00:04:50;;;;;;;8.20;3.90;;;18.10;99.90;;;;;;5074569;28;20545;-71
2023/06/16 00:07:19;;;;;;;6.73;3.70;;;18.10;99.90;;;;;;5074592;28;20044;-72
2023/06/16 00:09:49;;;;;;;7.80;4.03;;;18.20;99.90;;;;;;5074417;28;20090;-71
2023/06/16 00:12:15;;;;;;;7.93;4.60;;;18.20;99.90;;;;;;5073308;28;20503;-72
2023/06/16 00:14:40;;;;;;;7.10;4.40;;;18.20;99.90;;;;;;5074175;28;20044;-71
2023/06/16 00:17:06;;;;;;;7.80;4.83;;;18.20;99.90;;;;;;5074276;28;20074;-71
2023/06/16 00:19:32;;;;;;;7.37;4.30;;;18.20;99.90;;;;;;5073178;28;20052;-71
2023/06/16 00:21:59;;;;;;;8.70;4.57;;;18.10;99.90;;;;;;5074280;28;20049;-71
2023/06/16 00:24:26;;;;;;;7.83;4.20;;;18.10;99.90;;;;;;5074106;28;20408;-71
2023/06/16 00:26:54;;;;;;;9.77;4.77;;;18.10;99.90;;;;;;5073916;28;20606;-73
2023/06/16 00:29:19;;;;;;;6.67;4.63;;;18.00;99.90;;;;;;5074083;28;20121;-72
2023/06/16 00:31:45;;;;;;;7.57;4.37;;;18.00;99.90;;;;;;5073890;28;20102;-71
2023/06/16 00:34:11;;;;;;;7.50;4.47;;;17.90;99.90;;;;;;5074040;28;20404;-71
2023/06/16 00:36:37;;;;;;;7.43;4.50;;;17.80;99.90;;;;;;5072437;28;20055;-71
2023/06/16 00:39:02;;;;;;;9.77;4.27;;;17.70;99.90;;;;;;5073314;28;20063;-71
2023/06/16 00:41:28;;;;;;;8.37;4.93;;;17.70;99.90;;;;;;5073830;28;20141;-71
2023/06/16 00:43:55;;;;;;;11.83;5.47;;;17.60;99.90;;;;;;5073060;28;20045;-71
2023/06/16 00:46:36;;;;;;;6.97;4.20;;;17.60;99.90;;;;;;5073759;28;20357;-71
2023/06/16 00:49:03;;;;;;;8.70;4.97;;;17.50;99.90;;;;;;5073748;28;20052;-71
2023/06/16 00:51:30;;;;;;;8.63;4.97;;;17.50;99.90;;;;;;5073449;28;20048;-71
2023/06/16 00:53:57;;;;;;;6.80;4.53;;;17.60;99.90;;;;;;5073591;28;20055;-71
2023/06/16 00:56:23;;;;;;;6.77;4.83;;;17.60;99.90;;;;;;5073470;28;20089;-72
2023/06/16 00:58:52;;;;;;;6.97;4.60;;;17.60;99.90;;;;;;5073599;28;20048;-71
2023/06/16 01:01:18;;;;;;;7.40;4.30;;;17.60;99.90;;;;;;5073622;28;20378;-72
2023/06/16 01:03:50;;;;;;;6.87;4.80;;;17.60;99.90;;;;;;5073141;28;20456;-71
2023/06/16 01:06:30;;;;;;;8.13;4.27;;;17.60;99.90;;;;;;5073562;28;20400;-72
2023/06/16 01:09:05;;;;;;;7.73;4.63;;;17.50;99.90;;;;;;5073294;28;20052;-72
2023/06/16 01:11:37;;;;;;;8.13;5.20;;;17.60;99.90;;;;;;5073571;28;20051;-71
2023/06/16 01:14:05;;;;;;;7.40;5.30;;;17.60;99.90;;;;;;5073247;28;20037;-71
2023/06/16 01:16:32;;;;;;;10.97;5.70;;;17.60;99.90;;;;;;5071774;28;20127;-71
2023/06/16 01:19:13;;;;;;;8.47;5.20;;;17.50;99.90;;;;;;5072225;28;20052;-71
2023/06/16 01:21:39;;;;;;;12.07;4.63;;;17.50;99.90;;;;;;5073052;28;20049;-71
2023/06/16 01:24:13;;;;;;;7.73;5.37;;;17.50;99.90;;;;;;5073176;28;20109;-71
2023/06/16 01:26:46;;;;;;;7.05;5.22;;;17.50;99.90;;;;;;5072758;28;20476;-71
2023/06/16 01:29:13;;;;;;;7.40;5.03;;;17.50;99.90;;;;;;5073136;28;20392;-71
2023/06/16 01:31:41;;;;;;;9.37;5.17;;;17.50;99.90;;;;;;5072745;28;20485;-71
2023/06/16 01:34:09;;;;;;;7.60;5.40;;;17.30;99.90;;;;;;5071902;28;20052;-71
2023/06/16 01:36:38;;;;;;;10.37;5.43;;;17.30;99.90;;;;;;5072654;28;20080;-71
2023/06/16 01:39:06;;;;;;;11.13;5.40;;;17.30;99.90;;;;;;5071746;28;20052;-71
2023/06/16 01:41:35;;;;;;;9.13;5.43;;;17.40;99.90;;;;;;5072428;28;20143;-71
2023/06/16 01:44:02;;;;;;;7.43;5.57;;;17.30;99.90;;;;;;5071847;28;20051;-71
2023/06/16 01:46:29;;;;;;;8.63;5.40;;;17.30;99.90;;;;;;5071435;28;20048;-71
2023/06/16 01:48:55;;;;;;;9.47;5.53;;;17.30;99.90;;;;;;5072592;28;20484;-71
2023/06/16 01:51:22;;;;;;;9.00;6.50;;;17.30;99.90;;;;;;5072777;28;20059;-71
2023/06/16 01:53:50;;;;;;;9.70;6.47;;;17.30;99.90;;;;;;5072570;28;20045;-72
2023/06/16 01:56:16;;;;;;;9.60;6.60;;;17.30;99.90;;;;;;5072841;28;20044;-71
2023/06/16 01:58:42;;;;;;;10.97;6.70;;;17.30;99.90;;;;;;5071028;28;20482;-71
2023/06/16 02:01:16;;;;;;;10.23;7.80;;;17.20;99.90;;;;;;5071655;28;20093;-72
2023/06/16 02:03:54;;;;;;;7.90;6.00;;;17.10;99.90;;;;;;5072508;28;20056;-72
2023/06/16 02:06:39;;;;;;;8.30;6.80;;;17.20;99.90;;;;;;5072543;28;20503;-72
2023/06/16 02:09:07;;;;;;;8.98;6.75;;;17.10;99.90;;;;;;5072645;28;20044;-72
2023/06/16 02:11:34;;;;;;;8.43;7.03;;;17.10;99.90;;;;;;5072586;28;20056;-71
2023/06/16 02:14:00;;;;;;;9.47;7.87;;;17.10;99.90;;;;;;5071394;28;20190;-72
2023/06/16 02:16:26;;;;;;;9.90;7.53;;;17.10;99.90;;;;;;5072572;28;20040;-71
2023/06/16 02:18:53;;;;;;;10.23;7.47;;;17.00;99.90;;;;;;5072354;28;20060;-71
2023/06/16 02:21:21;;;;;;;9.00;7.60;;;16.90;99.90;;;;;;5071295;28;20075;-72
2023/06/16 02:23:47;;;;;;;11.13;8.23;;;16.90;99.90;;;;;;5071120;28;20127;-72
2023/06/16 02:26:12;;;;;;;10.63;8.57;;;16.90;99.90;;;;;;5071488;28;20062;-73
2023/06/16 02:28:38;;;;;;;13.13;8.63;;;16.90;99.90;;;;;;5072197;28;20123;-72
2023/06/16 02:31:04;;;;;;;12.93;8.57;;;16.80;99.90;;;;;;5072403;28;20044;-72
2023/06/16 02:33:29;;;;;;;10.50;8.27;;;16.80;99.90;;;;;;5072376;28;20059;-72
2023/06/16 02:35:55;;;;;;;10.57;8.97;;;16.80;99.90;;;;;;5072088;28;20051;-72
2023/06/16 02:38:21;;;;;;;13.70;9.53;;;16.80;99.90;;;;;;5072370;28;20044;-72
2023/06/16 02:40:46;;;;;;;11.27;8.93;;;16.90;99.90;;;;;;5072111;28;20048;-72
2023/06/16 02:43:12;;;;;;;12.80;9.63;;;16.80;99.90;;;;;;5071500;28;20480;-72
2023/06/16 02:45:39;;;;;;;11.57;9.57;;;16.80;99.90;;;;;;5072034;28;20091;-72
2023/06/16 02:48:05;;;;;;;12.57;10.63;;;16.70;99.90;;;;;;5071948;28;20045;-72
2023/06/16 02:50:31;;;;;;;14.17;10.43;;;16.60;99.90;;;;;;5072331;28;20068;-72
2023/06/16 02:52:58;;;;;;;11.93;10.63;;;16.50;99.90;;;;;;5054209;28;20484;-72
2023/06/16 02:55:24;;;;;;;14.83;10.87;;;16.50;99.90;;;;;;5071045;28;20051;-73
2023/06/16 02:57:50;;;;;;;11.77;10.57;;;16.50;99.90;;;;;;5071998;28;20063;-72
2023/06/16 03:00:16;;;;;;;12.13;10.30;;;16.50;99.90;;;;;;5072103;28;20286;-72
2023/06/16 03:02:42;;;;;;;13.43;10.83;;;16.50;99.90;;;;;;5073216;28;20051;-71
2023/06/16 03:05:08;;;;;;;11.73;10.53;;;16.50;99.90;;;;;;5074556;28;20279;-72
2023/06/16 03:07:34;;;;;;;16.07;11.77;;;16.40;99.90;;;;;;5075651;28;20480;-72
2023/06/16 03:10:01;;;;;;;15.43;10.80;;;16.30;99.90;;;;;;5075397;28;20044;-72
2023/06/16 03:12:27;;;;;;;13.27;11.87;;;16.30;99.90;;;;;;5075546;28;20370;-72
2023/06/16 03:14:53;;;;;;;14.43;12.87;;;16.40;99.90;;;;;;5075368;28;20365;-72
2023/06/16 03:17:21;;;;;;;13.13;11.77;;;16.30;99.90;;;;;;5075371;28;20460;-72
2023/06/16 03:19:48;;;;;;;13.40;11.80;;;16.20;99.90;;;;;;5073995;28;20051;-72
2023/06/16 03:22:13;;;;;;;13.13;11.83;;;16.20;99.90;;;;;;5075654;28;20282;-71
2023/06/16 03:24:43;;;;;;;14.37;12.90;;;16.20;99.90;;;;;;5075452;28;20623;-72
2023/06/16 03:27:12;;;;;;;14.70;13.20;;;16.10;99.90;;;;;;5075608;28;20142;-72
2023/06/16 03:29:37;;;;;;;14.97;13.40;;;16.10;99.90;;;;;;5075219;28;20374;-72
2023/06/16 03:32:05;;;;;;;14.17;12.63;;;16.30;99.90;;;;;;5075002;28;20353;-72
2023/06/16 03:34:31;;;;;;;16.33;13.77;;;16.40;99.90;;;;;;5075307;28;20370;-72
2023/06/16 03:36:57;;;;;;;16.97;14.90;;;16.40;99.90;;;;;;5074814;28;20298;-71
2023/06/16 03:39:23;;;;;;;15.80;14.17;;;16.40;99.90;;;;;;5075035;28;20041;-72
2023/06/16 03:41:49;;;;;;;17.03;14.93;;;16.40;99.90;;;;;;5073857;28;20286;-72
2023/06/16 03:44:15;;;;;;;16.63;14.77;;;16.50;99.90;;;;;;5073820;28;20044;-72
2023/06/16 03:46:40;;;;;;;16.83;15.13;;;16.50;99.90;;;;;;5075045;28;20118;-73
2023/06/16 03:49:09;;;;;;;17.70;15.93;;;16.50;99.90;;;;;;5074713;28;20040;-72
2023/06/16 03:51:35;;;;;;;17.77;15.97;;;16.60;99.90;;;;;;5074951;28;20092;-72
2023/06/16 03:54:01;;;;;;;16.60;14.90;;;16.60;99.90;;;;;;5074627;28;20279;-72
2023/06/16 03:56:27;;;;;;;16.93;15.10;;;16.60;99.90;;;;;;5074723;28;20326;-72
2023/06/16 03:58:52;;;;;;;17.37;15.63;;;16.70;99.90;;;;;;5073425;28;20052;-71
2023/06/16 04:01:22;;;;;;;16.77;15.13;;;16.70;99.90;;;;;;5074390;28;20496;-72
2023/06/16 04:03:49;;;;;;;17.67;15.77;;;16.70;99.90;;;;;;5074403;28;20076;-71
2023/06/16 04:06:15;;;;;;;17.73;15.63;;;16.70;99.90;;;;;;5074816;28;20263;-72
2023/06/16 04:08:41;;;;;;;18.07;16.27;;;16.70;99.90;;;;;;5073301;28;20063;-72
2023/06/16 04:11:06;;;;;;;16.27;14.07;;;16.70;99.90;;;;;;5074214;28;20044;-72
2023/06/16 04:13:32;;;;;;;16.67;15.07;;;16.70;99.90;;;;;;5073980;28;20095;-72
2023/06/16 04:15:58;;;;;;;17.17;15.40;;;16.70;99.90;;;;;;5073865;28;20503;-72
2023/06/16 04:18:24;;;;;;;18.70;15.70;;;16.70;99.90;;;;;;5074344;28;20131;-72
2023/06/16 04:20:50;;;;;;;17.53;15.47;;;16.70;99.90;;;;;;5074250;28;20045;-71
2023/06/16 04:23:16;;;;;;;16.23;14.53;;;16.70;99.90;;;;;;5073029;28;20362;-73
2023/06/16 04:25:42;;;;;;;16.23;14.50;;;16.70;99.90;;;;;;5073153;28;20208;-73
2023/06/16 04:28:13;;;;;;;16.27;14.57;;;16.70;99.90;;;;;;5074062;28;20051;-72
2023/06/16 04:30:43;;;;;;;15.83;14.23;;;16.70;99.90;;;;;;5072946;28;20049;-72
2023/06/16 04:33:10;;;;;;;16.40;14.80;;;16.70;99.90;;;;;;5072905;28;20059;-72
2023/06/16 04:35:35;;;;;;;16.47;14.77;;;16.60;99.90;;;;;;5073850;28;20047;-72
2023/06/16 04:38:02;;;;;;;16.67;14.97;;;16.60;99.90;;;;;;5073721;28;20044;-72
2023/06/16 04:40:29;;;;;;;15.43;13.90;;;16.60;99.90;;;;;;5073104;28;20496;-72
2023/06/16 04:42:56;;;;;;;15.60;14.13;;;16.70;99.90;;;;;;5073623;28;20040;-72
2023/06/16 04:45:22;;;;;;;15.77;14.20;;;16.70;99.90;;;;;;5072521;28;20053;-72
2023/06/16 04:47:50;;;;;;;15.90;14.30;;;16.90;99.90;;;;;;5072790;28;20060;-72
2023/06/16 04:50:16;;;;;;;15.73;14.10;;;17.00;99.90;;;;;;5073757;28;20106;-72
2023/06/16 04:52:43;;;;;;;15.63;14.03;;;17.10;99.90;;;;;;5073676;28;20057;-72
2023/06/16 04:55:08;;;;;;;18.87;14.80;;;17.20;99.90;;;;;;5073395;28;20127;-73
2023/06/16 04:57:35;;;;;;;18.07;14.93;;;17.40;99.90;;;;;;5073452;28;20132;-72
2023/06/16 05:00:06;;;;;;;17.13;15.33;;;17.50;99.90;;;;;;5073431;28;20044;-72
2023/06/16 05:02:32;;;;;;;18.33;16.43;;;17.60;99.90;;;;;;5073558;28;20127;-72
2023/06/16 05:04:58;;;;;;;17.47;15.63;;;17.70;99.90;;;;;;5073071;28;20060;-72
2023/06/16 05:07:23;;;;;;;15.60;14.03;;;17.80;99.90;;;;;;5073581;28;20044;-72
2023/06/16 05:09:49;;;;;;;18.23;16.23;;;18.00;99.90;;;;;;5072097;28;20106;-74
2023/06/16 05:12:15;;;;;;;16.63;14.93;;;18.10;99.90;;;;;;5073123;28;20048;-72
2023/06/16 05:14:40;;;;;;;17.20;15.50;;;18.20;99.90;;;;;;5073267;28;20119;-72
2023/06/16 05:17:06;;;;;;;17.83;15.83;;;18.30;99.90;;;;;;5072953;28;20469;-72
2023/06/16 05:19:32;;;;;;;17.30;15.50;;;18.40;99.90;;;;;;5072487;28;20044;-72
2023/06/16 05:21:58;;;;;;;16.23;14.63;;;18.60;99.90;;;;;;5072984;28;20402;-72
2023/06/16 05:24:24;;;;;;;17.13;15.53;;;18.70;99.90;;;;;;5073126;28;20053;-72
2023/06/16 05:26:50;;;;;;;17.03;15.33;;;18.90;99.90;;;;;;5072561;28;20044;-73
2023/06/16 05:29:16;;;;;;;16.53;14.60;;;19.00;99.90;;;;;;5072890;28;20057;-73
2023/06/16 05:31:42;;;;;;;17.70;15.27;;;19.00;99.90;;;;;;5073240;28;20123;-72
2023/06/16 05:34:08;;;;;;;16.80;15.10;;;19.10;99.90;;;;;;5071581;28;20048;-72
2023/06/16 05:36:35;;;;;;;18.47;15.33;;;19.20;99.90;;;;;;5072899;28;20037;-73
2023/06/16 05:39:02;;;;;;;17.77;15.97;;;19.30;99.90;;;;;;5072764;28;20052;-72
2023/06/16 05:41:28;;;;;;;15.50;14.00;;;19.40;99.90;;;;;;5072960;28;20091;-72
2023/06/16 05:43:55;;;;;;;15.27;13.73;;;19.60;99.90;;;;;;5072891;28;20448;-73
2023/06/16 05:46:21;;;;;;;16.97;15.33;;;19.80;99.90;;;;;;5072873;28;20481;-72
2023/06/16 05:48:47;;;;;;;16.43;14.60;;;20.00;99.90;;;;;;5072829;28;20048;-73
2023/06/16 05:51:13;;;;;;;17.23;15.43;;;20.60;99.90;;;;;;5071416;28;20147;-73
2023/06/16 05:53:39;;;;;;;17.57;13.90;;;21.80;99.90;;;;;;5072834;28;20047;-72
2023/06/16 05:56:04;;;;;;;15.43;13.93;;;23.10;99.90;;;;;;5072378;28;20396;-72
2023/06/16 05:58:35;;;;;;;14.80;13.40;;;24.00;99.90;;;;;;5072730;28;20040;-73
2023/06/16 06:01:02;;;;;;;15.27;12.80;;;25.10;99.90;;;;;;5072626;28;20462;-72
2023/06/16 06:03:28;;;;;;;15.90;13.53;;;26.00;99.90;;;;;;5071829;28;20055;-73
2023/06/16 06:05:55;;;;;;;14.37;12.87;;;26.70;99.90;;;;;;5072706;28;20045;-73
2023/06/16 06:08:24;;;;;;;15.43;12.57;;;27.30;97.30;;;;;;5071362;28;20040;-73
2023/06/16 06:10:51;;;;;;;12.73;11.40;;;27.90;93.50;;;;;;5072655;28;20120;-73
2023/06/16 06:13:16;;;;;;;19.57;11.90;;;28.60;89.50;;;;;;5071186;28;20095;-73
2023/06/16 06:15:42;;;;;;;13.67;11.10;;;29.30;80.90;;;;;;5072577;28;20071;-73
2023/06/16 06:18:08;;;;;;;12.20;9.77;;;29.80;72.50;;;;;;5072341;28;20055;-72
2023/06/16 06:20:34;;;;;;;10.53;9.43;;;30.10;65.20;;;;;;5073033;28;20511;-73
2023/06/16 06:23:00;;;;;;;72.47;17.37;;;30.50;60.30;;;;;;5072517;28;20056;-73
2023/06/16 06:25:25;;;;;;;15.63;9.93;;;30.80;58.00;;;;;;5071220;28;20041;-73
2023/06/16 06:27:51;;;;;;;11.52;9.25;;;31.10;55.70;;;;;;5072641;28;20449;-73
2023/06/16 06:30:17;;;;;;;10.38;9.30;;;31.20;54.20;;;;;;5072216;28;20131;-72
2023/06/16 06:32:42;;;;;;;10.25;9.27;;;31.60;52.90;;;;;;5072398;28;20049;-74
2023/06/16 06:35:08;;;;;;;11.00;8.80;;;32.00;51.80;;;;;;5072186;28;20101;-73
2023/06/16 06:37:34;;;;;;;9.73;8.40;;;32.20;50.10;;;;;;5055597;28;20045;-73
2023/06/16 06:40:00;;;;;;;13.18;8.65;;;32.40;49.10;;;;;;5076486;28;20052;-73
2023/06/16 06:42:27;;;;;;;9.68;7.45;;;32.60;48.20;;;;;;5074759;28;20049;-72
2023/06/16 06:44:53;;;;;;;8.65;6.97;;;33.10;47.20;;;;;;5075856;28;20427;-73
2023/06/16 06:47:21;;;;;;;6.70;5.90;;;33.40;45.90;;;;;;5075940;28;20049;-71
2023/06/16 06:49:48;;;;;;;10.02;7.32;;;33.60;45.00;;;;;;5075102;28;20056;-73
2023/06/16 06:52:14;;;;;;;7.20;6.20;;;33.70;44.00;;;;;;5075792;28;20145;-73
2023/06/16 06:54:39;;;;;;;7.90;6.93;;;34.10;43.50;;;;;;5041202;28;20083;-73
2023/06/16 06:57:06;;;;;;;8.13;6.70;;;34.40;42.60;;;;;;5075667;28;20045;-73
2023/06/16 06:59:32;;;;;;;6.85;6.15;;;34.40;41.90;;;;;;5075713;28;20543;-71
2023/06/16 07:01:58;;;;;;;8.45;6.70;;;34.60;41.80;;;;;;5075800;28;20044;-71
2023/06/16 07:04:24;;;;;;;8.43;6.40;;;34.80;41.50;;;;;;5074389;28;20107;-71
2023/06/16 07:06:49;;;;;;;9.25;6.50;;;35.20;41.00;;;;;;5075659;28;20043;-72
2023/06/16 07:09:15;;;;;;;8.55;6.47;;;35.30;40.40;;;;;;5074572;28;20140;-71
2023/06/16 07:11:41;;;;;;;7.38;5.90;;;35.20;39.80;;;;;;5075693;28;20199;-71
2023/06/16 07:14:07;;;;;;;8.15;6.63;;;35.40;39.80;;;;;;5075410;28;20461;-70
2023/06/16 07:16:32;;;;;;;7.03;6.30;;;35.40;39.40;;;;;;5057813;28;20056;-71
2023/06/16 07:18:58;;;;;;;6.88;6.18;;;35.30;39.10;;;;;;5075543;28;20047;-71
2023/06/16 07:21:27;;;;;;;8.82;6.40;;;35.60;39.20;;;;;;5074964;28;20484;-70
2023/06/16 07:23:53;;;;;;;7.47;6.03;;;35.70;39.20;;;;;;5075865;28;20049;-72
2023/06/16 07:26:18;;;;;;;7.28;5.93;;;36.00;38.80;;;;;;5074016;28;20097;-71
2023/06/16 07:28:44;;;;;;;6.88;5.05;;;36.00;38.50;;;;;;5057185;28;20495;-71
2023/06/16 07:31:10;;;;;;;6.53;5.13;;;36.20;38.00;;;;;;5075171;28;20048;-71
2023/06/16 07:33:35;;;;;;;8.38;5.45;;;36.20;37.90;;;;;;5074608;28;20040;-71
2023/06/16 07:36:01;;;;;;;7.53;5.28;;;36.40;37.50;;;;;;5074098;28;20478;-71
2023/06/16 07:38:27;;;;;;;6.55;5.50;;;36.40;37.30;;;;;;5074941;28;20051;-71
2023/06/16 07:40:53;;;;;;;6.65;5.13;;;36.70;36.90;;;;;;5075161;28;20048;-71
2023/06/16 07:43:21;;;;;;;5.95;4.80;;;36.60;36.60;;;;;;5074837;28;20473;-71
2023/06/16 07:45:46;;;;;;;7.97;5.22;;;36.90;36.80;;;;;;5074632;28;20106;-71
2023/06/16 07:48:14;;;;;;;7.55;5.43;;;36.90;36.30;;;;;;5074638;28;20044;-71
2023/06/16 07:50:40;;;;;;;6.03;4.53;;;36.70;36.30;;;;;;5074964;28;20400;-71
2023/06/16 07:53:06;;;;;;;6.63;5.05;;;36.60;36.60;;;;;;5073611;28;20098;-71
2023/06/16 07:55:32;;;;;;;6.75;4.30;;;36.40;36.50;;;;;;5074566;28;20045;-75
2023/06/16 07:57:58;;;;;;;6.00;4.60;;;36.70;36.10;;;;;;5074894;28;20447;-71
2023/06/16 08:00:24;;;;;;;6.30;4.45;;;37.10;35.60;;;;;;5074528;28;20044;-71
2023/06/16 08:02:50;;;;;;;7.35;4.63;;;37.10;35.40;;;;;;5074882;28;20095;-71
2023/06/16 08:05:16;;;;;;;5.63;4.43;;;37.20;35.20;;;;;;5073316;28;20369;-71
2023/06/16 08:07:43;;;;;;;6.72;4.07;;;37.30;35.10;;;;;;5074577;28;20369;-71
2023/06/16 08:10:10;;;;;;;7.20;4.68;;;37.00;34.70;;;;;;5074618;28;20076;-71
2023/06/16 08:12:35;;;;;;;5.65;4.03;;;37.20;34.70;;;;;;5074320;28;20396;-71
2023/06/16 08:15:03;;;;;;;6.18;4.75;;;37.20;34.30;;;;;;5074565;28;20041;-72
2023/06/16 08:17:28;;;;;;;8.90;5.07;;;37.20;34.60;;;;;;5074158;28;20050;-71
2023/06/16 08:19:54;;;;;;;7.30;6.10;;;37.30;34.60;;;;;;5074243;28;20048;-71
2023/06/16 08:22:20;;;;;;;6.75;4.88;;;37.20;34.70;;;;;;5074172;28;20041;-71
2023/06/16 08:24:46;;;;;;;7.10;4.35;;;37.00;34.90;;;;;;5073978;28;20051;-72
2023/06/16 08:27:12;;;;;;;7.43;4.40;;;37.20;34.80;;;;;;5073135;28;20045;-71
2023/06/16 08:29:39;;;;;;;5.80;4.13;;;37.10;34.50;;;;;;5074036;28;20097;-71
2023/06/16 08:32:06;;;;;;;9.05;4.43;;;37.10;34.30;;;;;;5074162;28;20067;-73
2023/06/16 08:34:33;;;;;;;4.28;3.17;;;37.20;33.10;;;;;;5073942;28;20058;-71
2023/06/16 08:37:01;;;;;;;5.25;3.13;;;36.90;32.10;;;;;;5073691;28;20484;-71
2023/06/16 08:39:27;;;;;;;4.38;3.22;;;36.50;31.50;;;;;;5073764;28;20373;-71
2023/06/16 08:41:53;;;;;;;4.93;3.30;;;36.50;31.30;;;;;;5072949;28;20433;-71
2023/06/16 08:44:20;;;;;;;4.07;2.83;;;36.60;31.40;;;;;;5073748;28;20053;-71
2023/06/16 08:46:48;;;;;;;6.63;3.50;;;36.30;30.80;;;;;;5072702;28;20492;-71
2023/06/16 08:49:16;;;;;;;4.82;3.35;;;36.10;30.70;;;;;;5073936;28;20056;-71
2023/06/16 08:51:47;;;;;;;6.32;3.08;;;35.90;31.00;;;;;;5073503;28;20048;-71
2023/06/16 08:54:14;;;;;;;35.25;8.88;;;35.60;31.00;;;;;;5073862;28;20074;-72
2023/06/16 08:56:42;;;;;;;4.72;2.85;;;35.30;31.00;;;;;;5073341;28;20036;-71
2023/06/16 08:59:09;;;;;;;5.18;3.15;;;34.40;30.90;;;;;;5073649;28;20048;-71
2023/06/16 09:01:39;;;;;;;17.85;5.10;;;33.70;31.20;;;;;;5071736;28;20123;-71
2023/06/16 09:04:15;;;;;;;9.10;3.15;;;33.20;31.20;;;;;;5073661;28;20056;-73
2023/06/16 09:06:47;;;;;;;4.32;2.63;;;32.50;31.50;;;;;;5073413;28;20044;-71
2023/06/16 09:09:14;;;;;;;5.07;3.33;;;31.90;31.60;;;;;;5072467;28;20059;-71
2023/06/16 09:11:41;;;;;;;6.10;3.50;;;31.60;31.80;;;;;;5071908;28;20787;-71
2023/06/16 09:14:11;;;;;;;13.63;4.05;;;31.40;32.20;;;;;;5055801;28;20044;-73
2023/06/16 09:16:39;;;;;;;5.50;2.75;;;30.80;33.00;;;;;;5073048;28;20041;-71
2023/06/16 09:19:08;;;;;;;6.75;3.47;;;30.60;33.20;;;;;;5073462;28;20044;-71
2023/06/16 09:21:35;;;;;;;5.47;3.55;;;30.40;34.20;;;;;;5072038;28;20052;-71
2023/06/16 09:24:01;;;;;;;4.90;2.95;;;30.30;33.90;;;;;;5073438;28;20055;-71
2023/06/16 09:26:35;;;;;;;5.30;2.78;;;30.20;33.90;;;;;;5071763;28;20041;-71
2023/06/16 09:29:19;;;;;;;4.80;2.80;;;30.00;34.80;;;;;;5073384;28;20052;-71
2023/06/16 09:31:45;;;;;;;4.97;2.50;;;29.90;34.80;;;;;;5072961;28;20140;-71
2023/06/16 09:34:11;;;;;;;4.60;2.50;;;29.80;34.90;;;;;;5073120;28;20123;-71
2023/06/16 09:36:37;;;;;;;3.83;2.25;;;29.50;34.90;;;;;;5072845;28;20040;-71
2023/06/16 09:39:05;;;;;;;4.10;2.40;;;29.30;35.40;;;;;;5073012;28;20530;-72
2023/06/16 09:41:34;;;;;;;5.57;2.55;;;29.00;35.40;;;;;;5072822;28;20048;-71
2023/06/16 09:44:02;;;;;;;4.00;2.55;;;28.80;35.70;;;;;;5072108;28;20115;-72
2023/06/16 09:46:29;;;;;;;4.10;2.40;;;28.80;35.70;;;;;;5071184;28;20049;-71
2023/06/16 09:48:54;;;;;;;5.00;2.80;;;28.80;35.90;;;;;;5073209;28;20467;-72
2023/06/16 09:51:22;;;;;;;5.25;2.00;;;28.70;35.70;;;;;;5072969;28;20080;-72
2023/06/16 09:53:50;;;;;;;4.65;2.33;;;28.70;35.90;;;;;;5072598;28;20049;-72
2023/06/16 09:56:17;;;;;;;4.97;2.38;;;28.60;35.80;;;;;;5072438;28;20441;-72
2023/06/16 09:58:47;;;;;;;4.53;2.00;;;28.60;35.60;;;;;;5072583;28;20488;-72
2023/06/16 10:01:14;;;;;;;3.95;2.40;;;28.40;35.70;;;;;;5072904;28;20060;-72
2023/06/16 10:03:47;;;;;;;5.93;2.30;;;28.10;35.90;;;;;;5072638;28;20090;-72
2023/06/16 10:06:27;;;;;;;7.05;2.10;;;28.00;36.10;;;;;;5072859;28;20044;-72
2023/06/16 10:08:54;;;;;;;3.95;2.10;;;27.80;36.60;;;;;;5072758;28;20044;-72
2023/06/16 10:11:21;;;;;;;5.60;2.65;;;27.60;36.30;;;;;;5072315;28;20048;-72
2023/06/16 10:13:56;;;;;;;5.03;2.45;;;27.50;36.20;;;;;;5074824;28;20044;-72
2023/06/16 10:16:28;;;;;;;6.22;2.88;;;27.50;36.40;;;;;;5075541;28;20052;-73
2023/06/16 10:18:57;;;;;;;6.93;2.72;;;27.50;36.40;;;;;;5075588;28;20067;-73
2023/06/16 10:21:23;;;;;;;4.40;2.47;;;27.30;36.40;;;;;;5076673;28;20066;-72
2023/06/16 10:23:50;;;;;;;4.65;2.33;;;27.30;36.60;;;;;;5075129;28;20044;-72
2023/06/16 10:26:16;;;;;;;6.55;2.50;;;27.30;36.70;;;;;;5076530;28;20044;-71
2023/06/16 10:28:42;;;;;;;6.28;2.55;;;27.30;36.70;;;;;;5076222;28;20217;-73
2023/06/16 10:31:11;;;;;;;4.32;2.67;;;27.30;36.70;;;;;;5076242;28;20083;-71
2023/06/16 10:33:57;;;;;;;6.20;2.45;;;27.20;36.70;;;;;;5076190;28;20059;-71
2023/06/16 10:36:33;;;;;;;4.78;2.45;;;27.10;37.00;;;;;;5076172;28;20091;-73
2023/06/16 10:39:07;;;;;;;6.13;2.78;;;27.00;37.60;;;;;;5076264;28;20045;-72
2023/06/16 10:41:33;;;;;;;;;;;27.00;37.70;;;;;;5076489;28;20491;-71
2023/06/16 10:44:24;;;;;;;6.97;2.63;;;27.00;38.30;;;;;;5076176;28;19982;-72
2023/06/16 10:47:08;;;;;;;4.13;2.20;;;27.00;37.70;;;;;;5074609;28;20060;-71
2023/06/16 10:49:57;;;;;;;4.32;2.75;;;26.90;37.80;;;;;;5076022;28;20063;-71
2023/06/16 10:52:29;;;;;;;7.75;2.35;;;26.80;37.80;;;;;;5072765;28;20049;-72
2023/06/16 10:54:56;;;;;;;7.10;2.67;;;26.80;37.80;;;;;;5067660;28;20518;-71
2023/06/16 10:57:22;;;;;;;3.90;2.40;;;26.70;37.80;;;;;;5054260;28;20044;-74
2023/06/16 11:00:12;;;;;;;6.53;3.43;;;26.70;37.90;;;;;;5053699;28;20052;-72
2023/06/16 11:02:53;;;;;;;3.87;2.60;;;26.60;38.10;;;;;;5054249;28;20493;-73
2023/06/16 11:05:22;;;;;;;4.87;2.23;;;26.50;38.30;;;;;;5054077;28;20044;-75
2023/06/16 11:07:58;;;;;;;7.03;2.80;;;26.40;37.70;;;;;;5054859;28;20443;-69
2023/06/16 11:10:24;;;;;;;5.53;2.83;;;26.30;38.00;;;;;;5055762;28;20045;-73
2023/06/16 11:12:50;;;;;;;4.17;2.40;;;26.30;38.30;;;;;;5054045;28;20435;-71
2023/06/16 11:15:18;;;;;;;5.97;2.57;;;26.30;38.40;;;;;;5054541;28;20049;-74
2023/06/16 11:17:47;;;;;;;3.67;2.30;;;26.30;38.70;;;;;;5053810;28;20443;-74
2023/06/16 11:20:14;;;;;;;7.50;2.83;;;26.30;39.10;;;;;;5055441;28;20045;-74
2023/06/16 11:22:40;;;;;;;4.53;2.60;;;26.10;38.50;;;;;;5054778;28;20088;-73
2023/06/16 11:25:07;;;;;;;7.80;2.70;;;26.10;38.90;;;;;;5055041;28;20072;-74
2023/06/16 11:27:33;;;;;;;4.03;2.73;;;26.10;39.20;;;;;;5054250;28;20052;-74
2023/06/16 11:30:01;;;;;;;4.80;2.80;;;26.00;39.00;;;;;;5053584;28;20198;-73
2023/06/16 11:32:28;;;;;;;8.20;2.80;;;26.00;39.00;;;;;;5054804;28;20045;-73
2023/06/16 11:34:57;;;;;;;7.40;2.30;;;26.00;39.20;;;;;;5054823;28;20056;-72
2023/06/16 11:37:51;;;;;;;5.50;2.40;;;26.00;39.40;;;;;;5054994;28;20048;-75
2023/06/16 11:40:24;;;;;;;4.15;2.45;;;25.90;38.90;;;;;;5053667;28;20052;-73
2023/06/16 11:43:02;;;;;;;5.00;2.65;;;25.90;39.10;;;;;;5053846;28;20052;-71
2023/06/16 11:45:30;;;;;;;5.10;2.50;;;26.00;39.60;;;;;;5055014;28;20053;-69
2023/06/16 11:47:58;;;;;;;4.10;2.53;;;26.00;38.60;;;;;;5054497;28;20095;-72
2023/06/16 11:50:24;;;;;;;3.60;2.43;;;25.90;38.40;;;;;;5054714;28;20056;-74
2023/06/16 11:52:51;;;;;;;3.77;2.50;;;25.90;38.50;;;;;;5054508;28;20063;-72
2023/06/16 11:55:17;;;;;;;4.47;2.30;;;25.90;38.50;;;;;;5054685;28;20564;-71
2023/06/16 11:57:44;;;;;;;4.13;2.50;;;25.70;38.30;;;;;;5054352;28;20052;-71
2023/06/16 12:00:13;;;;;;;7.20;2.60;;;25.70;38.60;;;;;;5054697;28;20052;-71
2023/06/16 12:02:39;;;;;;;7.63;2.63;;;25.70;38.70;;;;;;5054779;28;20098;-71
2023/06/16 12:05:10;;;;;;;5.20;2.77;;;25.60;38.60;;;;;;5054626;28;20052;-71
2023/06/16 12:07:36;;;;;;;7.07;2.60;;;25.70;39.00;;;;;;5054746;28;20127;-72
2023/06/16 12:10:03;;;;;;;5.40;3.43;;;25.60;38.60;;;;;;5054089;28;20052;-71
2023/06/16 12:12:30;;;;;;;4.00;2.50;;;25.70;38.90;;;;;;5053420;28;20469;-72
2023/06/16 12:14:58;;;;;;;3.77;2.10;;;25.70;38.90;;;;;;5052974;28;20112;-76
2023/06/16 12:17:24;;;;;;;4.90;3.00;;;25.60;39.20;;;;;;5054438;28;20063;-75
2023/06/16 12:19:51;;;;;;;4.03;2.50;;;25.70;39.10;;;;;;5053996;28;20045;-71
2023/06/16 12:22:17;;;;;;;6.20;2.80;;;25.60;39.00;;;;;;5054201;28;20048;-76
2023/06/16 12:24:43;;;;;;;4.43;2.77;;;25.60;39.00;;;;;;5053954;28;20048;-73
2023/06/16 12:27:20;;;;;;;5.20;2.37;;;25.40;38.70;;;;;;5054153;28;20052;-76
2023/06/16 12:29:46;;;;;;;5.70;2.60;;;25.40;39.00;;;;;;5054046;28;20049;-74
2023/06/16 12:32:12;;;;;;;4.03;2.43;;;25.50;39.30;;;;;;5053107;28;20045;-74
2023/06/16 12:34:37;;;;;;;4.07;2.77;;;25.60;39.20;;;;;;5053403;28;20085;-74
2023/06/16 12:37:10;;;;;;;4.87;2.67;;;25.60;39.30;;;;;;5035575;28;20069;-74
2023/06/16 12:39:43;;;;;;;6.63;2.70;;;25.60;39.10;;;;;;5053978;28;20124;-74
2023/06/16 12:42:12;;;;;;;4.83;2.80;;;25.60;39.20;;;;;;5053700;28;20048;-74
2023/06/16 12:44:46;;;;;;;7.97;2.87;;;25.50;39.20;;;;;;5053591;28;20101;-74